sensor_id;sensor_type;location;lat;lon;timestamp;pressure;altitude;pressure_sealevel;temperature;humidity
34674;BME280;20879;55.668;37.858;2023-10-09T00:01:15;97161.59;;;1.49;98.69
34674;BME280;20879;55.668;37.858;2023-10-09T00:03:45;97168.25;;;1.56;98.85
34674;BME280;20879;55.668;37.858;2023-10-09T00:06:24;97163.94;;;1.60;98.08
34674;BME280;20879;55.668;37.858;2023-10-09T00:09:10;97163.22;;;1.53;98.38
34674;BME280;20879;55.668;37.858;2023-10-09T00:12:03;97168.25;;;1.56;98.66
34674;BME280;20879;55.668;37.858;2023-10-09T00:14:37;97188.63;;;1.57;98.71
34674;BME280;20879;55.668;37.858;2023-10-09T00:17:10;97195.53;;;1.54;98.53
34674;BME280;20879;55.668;37.858;2023-10-09T00:19:51;97188.50;;;1.64;98.96
34674;BME280;20879;55.668;37.858;2023-10-09T00:22:31;97212.31;;;1.64;98.40
34674;BME280;20879;55.668;37.858;2023-10-09T00:25:14;97207.19;;;1.66;98.52
34674;BME280;20879;55.668;37.858;2023-10-09T00:27:52;97193.78;;;1.56;98.14
34674;BME280;20879;55.668;37.858;2023-10-09T00:30:22;97203.91;;;1.59;98.51
34674;BME280;20879;55.668;37.858;2023-10-09T00:33:00;97216.03;;;1.48;98.43
34674;BME280;20879;55.668;37.858;2023-10-09T00:35:39;97229.47;;;1.56;98.79
34674;BME280;20879;55.668;37.858;2023-10-09T00:38:26;97223.44;;;1.60;98.83
34674;BME280;20879;55.668;37.858;2023-10-09T00:41:03;97226.88;;;1.59;98.83
34674;BME280;20879;55.668;37.858;2023-10-09T00:43:52;97231.16;;;1.57;99.05
34674;BME280;20879;55.668;37.858;2023-10-09T00:46:31;97218.38;;;1.59;99.33
34674;BME280;20879;55.668;37.858;2023-10-09T00:49:04;97232.19;;;1.48;98.68
34674;BME280;20879;55.668;37.858;2023-10-09T00:51:40;97253.13;;;1.64;99.40
34674;BME280;20879;55.668;37.858;2023-10-09T00:54:28;97247.13;;;1.67;99.38
34674;BME280;20879;55.668;37.858;2023-10-09T00:57:08;97247.09;;;1.68;98.98
34674;BME280;20879;55.668;37.858;2023-10-09T00:59:50;97258.13;;;1.70;99.22
34674;BME280;20879;55.668;37.858;2023-10-09T01:02:27;97266.81;;;1.60;98.94
34674;BME280;20879;55.668;37.858;2023-10-09T01:05:11;97270.75;;;1.77;98.80
34674;BME280;20879;55.668;37.858;2023-10-09T01:07:53;97256.34;;;1.74;99.20
34674;BME280;20879;55.668;37.858;2023-10-09T01:10:44;97253.97;;;1.65;98.79
34674;BME280;20879;55.668;37.858;2023-10-09T01:13:19;97266.34;;;1.85;98.59
34674;BME280;20879;55.668;37.858;2023-10-09T01:15:54;97275.00;;;1.78;98.92
34674;BME280;20879;55.668;37.858;2023-10-09T01:18:27;97284.22;;;1.85;98.58
34674;BME280;20879;55.668;37.858;2023-10-09T01:21:07;97283.28;;;1.89;98.66
34674;BME280;20879;55.668;37.858;2023-10-09T01:23:48;97290.94;;;1.89;98.07
34674;BME280;20879;55.668;37.858;2023-10-09T01:26:34;97299.50;;;1.86;98.34
34674;BME280;20879;55.668;37.858;2023-10-09T01:29:08;97326.81;;;1.80;98.34
34674;BME280;20879;55.668;37.858;2023-10-09T01:31:41;97314.13;;;1.77;98.72
34674;BME280;20879;55.668;37.858;2023-10-09T01:34:21;97290.72;;;1.54;98.72
34674;BME280;20879;55.668;37.858;2023-10-09T01:37:15;97335.41;;;1.75;98.79
34674;BME280;20879;55.668;37.858;2023-10-09T01:39:52;97319.47;;;1.64;98.76
34674;BME280;20879;55.668;37.858;2023-10-09T01:42:26;97325.13;;;1.80;98.84
34674;BME280;20879;55.668;37.858;2023-10-09T01:45:04;97337.06;;;1.78;99.09
34674;BME280;20879;55.668;37.858;2023-10-09T01:47:39;97303.88;;;1.80;98.93
34674;BME280;20879;55.668;37.858;2023-10-09T01:50:14;97354.75;;;1.87;99.10
34674;BME280;20879;55.668;37.858;2023-10-09T01:52:49;97322.50;;;1.85;98.72
34674;BME280;20879;55.668;37.858;2023-10-09T01:55:24;97348.09;;;1.79;98.80
34674;BME280;20879;55.668;37.858;2023-10-09T01:58:11;97393.03;;;1.89;99.07
34674;BME280;20879;55.668;37.858;2023-10-09T02:00:54;97358.34;;;1.75;99.02
34674;BME280;20879;55.668;37.858;2023-10-09T02:03:25;97376.94;;;1.84;98.83
34674;BME280;20879;55.668;37.858;2023-10-09T02:05:56;97340.56;;;1.72;98.97
34674;BME280;20879;55.668;37.858;2023-10-09T02:08:29;97377.72;;;1.87;99.01
34674;BME280;20879;55.668;37.858;2023-10-09T02:11:04;97375.16;;;1.87;99.20
34674;BME280;20879;55.668;37.858;2023-10-09T02:13:46;97396.47;;;1.86;98.93
34674;BME280;20879;55.668;37.858;2023-10-09T02:16:27;97389.66;;;1.85;99.22
34674;BME280;20879;55.668;37.858;2023-10-09T02:19:09;97420.97;;;1.95;99.38
34674;BME280;20879;55.668;37.858;2023-10-09T02:22:02;97378.72;;;1.80;98.94
34674;BME280;20879;55.668;37.858;2023-10-09T02:24:40;97352.91;;;1.96;98.58
34674;BME280;20879;55.668;37.858;2023-10-09T02:27:34;97425.47;;;1.81;99.31
34674;BME280;20879;55.668;37.858;2023-10-09T02:30:27;97392.41;;;1.74;99.24
34674;BME280;20879;55.668;37.858;2023-10-09T02:32:56;97414.34;;;1.85;99.26
34674;BME280;20879;55.668;37.858;2023-10-09T02:35:44;97434.81;;;1.82;99.32
34674;BME280;20879;55.668;37.858;2023-10-09T02:38:26;97400.63;;;1.92;99.51
34674;BME280;20879;55.668;37.858;2023-10-09T02:40:59;97424.44;;;1.91;99.29
34674;BME280;20879;55.668;37.858;2023-10-09T02:43:54;97447.47;;;1.88;98.90
34674;BME280;20879;55.668;37.858;2023-10-09T02:46:39;97402.56;;;1.78;98.84
34674;BME280;20879;55.668;37.858;2023-10-09T02:49:19;97457.69;;;1.88;98.98
34674;BME280;20879;55.668;37.858;2023-10-09T02:51:52;97386.09;;;1.96;99.15
34674;BME280;20879;55.668;37.858;2023-10-09T02:54:25;97405.38;;;1.61;98.95
34674;BME280;20879;55.668;37.858;2023-10-09T02:57:08;97460.97;;;1.95;98.45
34674;BME280;20879;55.668;37.858;2023-10-09T02:59:55;97472.97;;;1.89;98.89
34674;BME280;20879;55.668;37.858;2023-10-09T03:02:30;97446.66;;;1.84;98.70
34674;BME280;20879;55.668;37.858;2023-10-09T03:05:05;97457.69;;;1.88;98.36
34674;BME280;20879;55.668;37.858;2023-10-09T03:07:44;97483.88;;;1.99;98.17
34674;BME280;20879;55.668;37.858;2023-10-09T03:10:16;97501.72;;;2.01;98.05
34674;BME280;20879;55.668;37.858;2023-10-09T03:12:52;97472.84;;;1.97;98.22
34674;BME280;20879;55.668;37.858;2023-10-09T03:15:24;97497.44;;;2.01;97.77
34674;BME280;20879;55.668;37.858;2023-10-09T03:18:05;97507.66;;;2.01;97.96
34674;BME280;20879;55.668;37.858;2023-10-09T03:20:36;97493.13;;;2.05;97.75
34674;BME280;20879;55.668;37.858;2023-10-09T03:23:13;97516.97;;;2.05;98.15
34674;BME280;20879;55.668;37.858;2023-10-09T03:25:43;97523.72;;;2.06;98.06
34674;BME280;20879;55.668;37.858;2023-10-09T03:28:13;97512.72;;;2.04;97.78
34674;BME280;20879;55.668;37.858;2023-10-09T03:30:44;97518.53;;;2.14;97.86
34674;BME280;20879;55.668;37.858;2023-10-09T03:33:17;97539.81;;;2.13;97.74
34674;BME280;20879;55.668;37.858;2023-10-09T03:35:54;97561.03;;;2.17;97.29
34674;BME280;20879;55.668;37.858;2023-10-09T03:38:23;97524.50;;;2.12;97.41
34674;BME280;20879;55.668;37.858;2023-10-09T03:40:58;97538.91;;;2.16;96.96
34674;BME280;20879;55.668;37.858;2023-10-09T03:43:33;97534.63;;;2.16;96.92
34674;BME280;20879;55.668;37.858;2023-10-09T03:46:12;97477.63;;;2.16;96.84
34674;BME280;20879;55.668;37.858;2023-10-09T03:48:47;97504.75;;;2.23;95.80
34674;BME280;20879;55.668;37.858;2023-10-09T03:51:19;97513.72;;;1.94;95.22
34674;BME280;20879;55.668;37.858;2023-10-09T03:53:53;97549.03;;;2.22;95.45
34674;BME280;20879;55.668;37.858;2023-10-09T03:56:28;97565.16;;;2.22;95.43
34674;BME280;20879;55.668;37.858;2023-10-09T03:58:59;97557.47;;;2.27;95.10
34674;BME280;20879;55.668;37.858;2023-10-09T04:01:34;97557.41;;;2.30;94.22
34674;BME280;20879;55.668;37.858;2023-10-09T04:04:11;97557.44;;;2.29;94.62
34674;BME280;20879;55.668;37.858;2023-10-09T04:06:47;97565.16;;;2.24;94.55
34674;BME280;20879;55.668;37.858;2023-10-09T04:09:21;97580.41;;;2.30;94.32
34674;BME280;20879;55.668;37.858;2023-10-09T04:12:12;97515.56;;;2.37;94.50
34674;BME280;20879;55.668;37.858;2023-10-09T04:14:54;97574.34;;;2.36;94.10
34674;BME280;20879;55.668;37.858;2023-10-09T04:17:30;97561.56;;;2.34;93.88
34674;BME280;20879;55.668;37.858;2023-10-09T04:20:04;97573.63;;;2.27;93.94
34674;BME280;20879;55.668;37.858;2023-10-09T04:22:55;97602.66;;;2.22;94.90
34674;BME280;20879;55.668;37.858;2023-10-09T04:25:34;97604.34;;;2.23;95.15
34674;BME280;20879;55.668;37.858;2023-10-09T04:28:11;97613.69;;;2.22;95.08
34674;BME280;20879;55.668;37.858;2023-10-09T04:30:46;97607.88;;;2.14;95.50
34674;BME280;20879;55.668;37.858;2023-10-09T04:33:28;97610.59;;;2.02;96.07
34674;BME280;20879;55.668;37.858;2023-10-09T04:36:09;97620.69;;;2.11;95.90
34674;BME280;20879;55.668;37.858;2023-10-09T04:38:52;97627.47;;;2.12;96.37
34674;BME280;20879;55.668;37.858;2023-10-09T04:41:43;97602.75;;;2.16;95.89
34674;BME280;20879;55.668;37.858;2023-10-09T04:44:44;97640.34;;;2.04;96.27
34674;BME280;20879;55.668;37.858;2023-10-09T04:47:41;97642.94;;;2.01;96.15
34674;BME280;20879;55.668;37.858;2023-10-09T04:50:28;97654.81;;;2.05;96.53
34674;BME280;20879;55.668;37.858;2023-10-09T04:53:15;97652.16;;;2.12;96.92
34674;BME280;20879;55.668;37.858;2023-10-09T04:56:03;97638.44;;;2.19;96.57
34674;BME280;20879;55.668;37.858;2023-10-09T04:58:44;97661.53;;;2.11;96.62
34674;BME280;20879;55.668;37.858;2023-10-09T05:01:18;97645.31;;;2.14;97.11
34674;BME280;20879;55.668;37.858;2023-10-09T05:04:03;97668.22;;;2.20;96.52
34674;BME280;20879;55.668;37.858;2023-10-09T05:06:50;97643.56;;;2.17;96.88
34674;BME280;20879;55.668;37.858;2023-10-09T05:09:29;97647.81;;;2.18;96.99
34674;BME280;20879;55.668;37.858;2023-10-09T05:12:17;97672.53;;;2.15;96.92
34674;BME280;20879;55.668;37.858;2023-10-09T05:14:55;97674.16;;;2.22;97.24
34674;BME280;20879;55.668;37.858;2023-10-09T05:17:34;97686.78;;;2.30;97.07
34674;BME280;20879;55.668;37.858;2023-10-09T05:20:20;97680.06;;;2.24;97.37
34674;BME280;20879;55.668;37.858;2023-10-09T05:23:15;97664.84;;;2.16;97.03
34674;BME280;20879;55.668;37.858;2023-10-09T05:25:58;97677.44;;;2.30;97.15
34674;BME280;20879;55.668;37.858;2023-10-09T05:28:25;97682.66;;;2.21;97.21
34674;BME280;20879;55.668;37.858;2023-10-09T05:31:16;97685.16;;;2.27;97.48
34674;BME280;20879;55.668;37.858;2023-10-09T05:34:00;97692.56;;;2.42;97.54
34674;BME280;20879;55.668;37.858;2023-10-09T05:36:42;97689.84;;;2.55;97.14
34674;BME280;20879;55.668;37.858;2023-10-09T05:39:22;97721.38;;;2.54;96.70
34674;BME280;20879;55.668;37.858;2023-10-09T05:42:09;97700.00;;;2.58;96.47
34674;BME280;20879;55.668;37.858;2023-10-09T05:44:51;97711.88;;;2.60;96.12
34674;BME280;20879;55.668;37.858;2023-10-09T05:47:40;97691.28;;;2.71;95.31
34674;BME280;20879;55.668;37.858;2023-10-09T05:50:22;97735.66;;;2.66;94.99
34674;BME280;20879;55.668;37.858;2023-10-09T05:53:10;97722.06;;;2.65;95.02
34674;BME280;20879;55.668;37.858;2023-10-09T05:56:05;97729.59;;;2.73;95.52
34674;BME280;20879;55.668;37.858;2023-10-09T05:58:47;97704.88;;;2.73;94.27
34674;BME280;20879;55.668;37.858;2023-10-09T06:01:39;97725.53;;;2.61;94.18
34674;BME280;20879;55.668;37.858;2023-10-09T06:04:24;97704.97;;;2.67;94.39
34674;BME280;20879;55.668;37.858;2023-10-09T06:07:15;97750.06;;;2.71;94.22
34674;BME280;20879;55.668;37.858;2023-10-09T06:09:55;97748.22;;;2.79;94.03
34674;BME280;20879;55.668;37.858;2023-10-09T06:12:49;97745.41;;;2.96;93.49
34674;BME280;20879;55.668;37.858;2023-10-09T06:15:36;97769.31;;;2.92;93.22
34674;BME280;20879;55.668;37.858;2023-10-09T06:18:25;97754.78;;;2.96;92.56
34674;BME280;20879;55.668;37.858;2023-10-09T06:21:02;97751.41;;;2.94;92.73
34674;BME280;20879;55.668;37.858;2023-10-09T06:23:45;97764.91;;;3.02;92.76
34674;BME280;20879;55.668;37.858;2023-10-09T06:26:46;97755.44;;;3.07;91.31
34674;BME280;20879;55.668;37.858;2023-10-09T06:29:39;97775.53;;;2.77;91.11
34674;BME280;20879;55.668;37.858;2023-10-09T06:32:23;97800.03;;;2.91;91.62
34674;BME280;20879;55.668;37.858;2023-10-09T06:35:05;97783.88;;;2.89;91.92
34674;BME280;20879;55.668;37.858;2023-10-09T06:37:50;97802.50;;;2.95;92.20
34674;BME280;20879;55.668;37.858;2023-10-09T06:40:35;97807.50;;;3.05;91.94
34674;BME280;20879;55.668;37.858;2023-10-09T06:43:21;97819.41;;;3.06;91.70
34674;BME280;20879;55.668;37.858;2023-10-09T06:46:04;97821.03;;;3.11;91.60
34674;BME280;20879;55.668;37.858;2023-10-09T06:48:49;97830.13;;;3.28;91.60
34674;BME280;20879;55.668;37.858;2023-10-09T06:51:25;97815.44;;;3.41;91.25
34674;BME280;20879;55.668;37.858;2023-10-09T06:54:08;97818.78;;;3.46;91.48
34674;BME280;20879;55.668;37.858;2023-10-09T06:56:44;97809.28;;;3.51;90.04
34674;BME280;20879;55.668;37.858;2023-10-09T06:59:39;97835.88;;;3.42;90.10
34674;BME280;20879;55.668;37.858;2023-10-09T07:03:01;97833.22;;;3.48;89.94
34674;BME280;20879;55.668;37.858;2023-10-09T07:05:44;97847.44;;;3.65;89.52
34674;BME280;20879;55.668;37.858;2023-10-09T07:08:45;97830.50;;;3.58;88.65
34674;BME280;20879;55.668;37.858;2023-10-09T07:11:35;97853.91;;;3.86;88.77
34674;BME280;20879;55.668;37.858;2023-10-09T07:14:25;97856.25;;;3.98;88.46
34674;BME280;20879;55.668;37.858;2023-10-09T07:17:22;97865.34;;;4.13;87.66
34674;BME280;20879;55.668;37.858;2023-10-09T07:19:55;97820.06;;;4.14;85.94
34674;BME280;20879;55.668;37.858;2023-10-09T07:22:42;97861.16;;;4.09;85.80
34674;BME280;20879;55.668;37.858;2023-10-09T07:25:24;97867.31;;;3.99;86.27
34674;BME280;20879;55.668;37.858;2023-10-09T07:28:10;97886.13;;;3.98;85.02
34674;BME280;20879;55.668;37.858;2023-10-09T07:31:08;97866.56;;;3.95;85.54
34674;BME280;20879;55.668;37.858;2023-10-09T07:33:57;97901.56;;;3.93;85.37
34674;BME280;20879;55.668;37.858;2023-10-09T07:36:47;97895.72;;;3.87;85.46
34674;BME280;20879;55.668;37.858;2023-10-09T07:39:31;97869.22;;;3.88;85.20
34674;BME280;20879;55.668;37.858;2023-10-09T07:42:06;97924.13;;;3.71;85.74
34674;BME280;20879;55.668;37.858;2023-10-09T07:44:53;97926.69;;;3.71;86.23
34674;BME280;20879;55.668;37.858;2023-10-09T07:47:39;97931.03;;;3.64;85.60
34674;BME280;20879;55.668;37.858;2023-10-09T07:50:34;97906.22;;;3.70;85.79
34674;BME280;20879;55.668;37.858;2023-10-09T07:53:24;97896.19;;;3.57;85.04
34674;BME280;20879;55.668;37.858;2023-10-09T07:56:11;97934.41;;;3.68;85.34
34674;BME280;20879;55.668;37.858;2023-10-09T07:58:54;97872.88;;;3.74;85.32
34674;BME280;20879;55.668;37.858;2023-10-09T08:01:31;97949.44;;;3.90;85.15
34674;BME280;20879;55.668;37.858;2023-10-09T08:04:26;97944.25;;;3.93;85.34
34674;BME280;20879;55.668;37.858;2023-10-09T08:07:13;97880.97;;;3.99;84.74
34674;BME280;20879;55.668;37.858;2023-10-09T08:10:15;97935.59;;;4.00;84.99
34674;BME280;20879;55.668;37.858;2023-10-09T08:12:59;97961.06;;;4.09;85.22
34674;BME280;20879;55.668;37.858;2023-10-09T08:16:02;97972.78;;;4.21;84.91
34674;BME280;20879;55.668;37.858;2023-10-09T08:19:00;97965.06;;;4.24;84.75
34674;BME280;20879;55.668;37.858;2023-10-09T08:21:54;97933.78;;;4.52;84.07
34674;BME280;20879;55.668;37.858;2023-10-09T08:24:45;97977.63;;;4.38;84.17
34674;BME280;20879;55.668;37.858;2023-10-09T08:27:37;97983.59;;;4.38;84.73
34674;BME280;20879;55.668;37.858;2023-10-09T08:30:27;97958.97;;;4.30;84.98
34674;BME280;20879;55.668;37.858;2023-10-09T08:33:19;97988.72;;;4.38;85.62
34674;BME280;20879;55.668;37.858;2023-10-09T08:36:31;97979.03;;;4.54;85.11
34674;BME280;20879;55.668;37.858;2023-10-09T08:39:08;97971.38;;;4.53;84.40
34674;BME280;20879;55.668;37.858;2023-10-09T08:41:56;98006.38;;;4.55;84.26
34674;BME280;20879;55.668;37.858;2023-10-09T08:44:47;97986.00;;;4.46;83.60
34674;BME280;20879;55.668;37.858;2023-10-09T08:47:22;98015.03;;;4.48;84.02
34674;BME280;20879;55.668;37.858;2023-10-09T08:49:57;98018.38;;;4.52;84.33
34674;BME280;20879;55.668;37.858;2023-10-09T08:52:32;98018.53;;;4.44;84.26
34674;BME280;20879;55.668;37.858;2023-10-09T08:55:17;98026.28;;;4.40;84.36
34674;BME280;20879;55.668;37.858;2023-10-09T08:57:57;97997.38;;;4.31;83.74
34674;BME280;20879;55.668;37.858;2023-10-09T09:00:58;98031.78;;;4.18;84.30
34674;BME280;20879;55.668;37.858;2023-10-09T09:03:41;97991.34;;;4.35;84.15
34674;BME280;20879;55.668;37.858;2023-10-09T09:06:19;98024.59;;;4.38;83.00
34674;BME280;20879;55.668;37.858;2023-10-09T09:09:10;97997.91;;;4.50;82.38
34674;BME280;20879;55.668;37.858;2023-10-09T09:11:57;98052.66;;;4.46;82.15
34674;BME280;20879;55.668;37.858;2023-10-09T09:14:38;98002.44;;;4.34;81.32
34674;BME280;20879;55.668;37.858;2023-10-09T09:17:22;98032.06;;;4.52;81.83
34674;BME280;20879;55.668;37.858;2023-10-09T09:20:20;98032.53;;;4.73;81.86
34674;BME280;20879;55.668;37.858;2023-10-09T09:22:56;98037.34;;;4.88;80.83
34674;BME280;20879;55.668;37.858;2023-10-09T09:25:45;98050.63;;;5.11;79.03
34674;BME280;20879;55.668;37.858;2023-10-09T09:28:51;98054.63;;;5.24;78.91
34674;BME280;20879;55.668;37.858;2023-10-09T09:31:25;98066.13;;;5.04;77.62
34674;BME280;20879;55.668;37.858;2023-10-09T09:34:13;97996.75;;;5.09;77.61
34674;BME280;20879;55.668;37.858;2023-10-09T09:36:56;98052.44;;;5.05;78.21
34674;BME280;20879;55.668;37.858;2023-10-09T09:39:38;98062.28;;;5.25;77.49
34674;BME280;20879;55.668;37.858;2023-10-09T09:42:23;98062.59;;;5.52;77.37
34674;BME280;20879;55.668;37.858;2023-10-09T09:45:07;98066.84;;;5.53;76.80
34674;BME280;20879;55.668;37.858;2023-10-09T09:47:44;98068.03;;;5.37;76.87
34674;BME280;20879;55.668;37.858;2023-10-09T09:50:43;98048.38;;;5.36;77.52
34674;BME280;20879;55.668;37.858;2023-10-09T09:53:25;98077.44;;;5.38;77.13
34674;BME280;20879;55.668;37.858;2023-10-09T09:56:08;97981.53;;;5.42;76.28
34674;BME280;20879;55.668;37.858;2023-10-09T09:59:12;98085.06;;;5.42;75.74
34674;BME280;20879;55.668;37.858;2023-10-09T10:02:16;98097.13;;;5.39;76.49
34674;BME280;20879;55.668;37.858;2023-10-09T10:05:07;98006.94;;;5.54;75.86
34674;BME280;20879;55.668;37.858;2023-10-09T10:07:53;98090.19;;;5.42;75.74
34674;BME280;20879;55.668;37.858;2023-10-09T10:10:42;98048.94;;;5.50;75.92
34674;BME280;20879;55.668;37.858;2023-10-09T10:13:56;98088.28;;;5.52;75.74
34674;BME280;20879;55.668;37.858;2023-10-09T10:17:11;98085.81;;;5.48;75.29
34674;BME280;20879;55.668;37.858;2023-10-09T10:20:14;98104.31;;;5.21;77.08
34674;BME280;20879;55.668;37.858;2023-10-09T10:23:18;98113.06;;;5.11;78.09
34674;BME280;20879;55.668;37.858;2023-10-09T10:26:23;98113.28;;;4.97;79.23
34674;BME280;20879;55.668;37.858;2023-10-09T10:29:18;98087.56;;;5.00;79.77
34674;BME280;20879;55.668;37.858;2023-10-09T10:32:08;98117.84;;;4.81;80.23
34674;BME280;20879;55.668;37.858;2023-10-09T10:34:55;98123.56;;;4.96;79.29
34674;BME280;20879;55.668;37.858;2023-10-09T10:37:46;98128.66;;;4.99;79.54
34674;BME280;20879;55.668;37.858;2023-10-09T10:40:25;98128.63;;;5.00;79.30
34674;BME280;20879;55.668;37.858;2023-10-09T10:43:32;98107.28;;;4.98;79.48
34674;BME280;20879;55.668;37.858;2023-10-09T10:46:29;98145.13;;;4.85;79.38
34674;BME280;20879;55.668;37.858;2023-10-09T10:49:14;98146.22;;;4.72;80.58
34674;BME280;20879;55.668;37.858;2023-10-09T10:51:59;98134.47;;;4.59;81.90
34674;BME280;20879;55.668;37.858;2023-10-09T10:54:46;98143.91;;;4.55;83.01
34674;BME280;20879;55.668;37.858;2023-10-09T10:57:38;98136.25;;;4.53;83.81
34674;BME280;20879;55.668;37.858;2023-10-09T11:00:31;98130.50;;;4.39;84.14
34674;BME280;20879;55.668;37.858;2023-10-09T11:03:31;98128.69;;;4.46;84.91
34674;BME280;20879;55.668;37.858;2023-10-09T11:06:29;98175.88;;;4.34;85.96
34674;BME280;20879;55.668;37.858;2023-10-09T11:09:19;98169.97;;;4.27;85.27
34674;BME280;20879;55.668;37.858;2023-10-09T11:12:23;98149.38;;;4.35;84.80
34674;BME280;20879;55.668;37.858;2023-10-09T11:15:15;98136.63;;;4.29;84.68
34674;BME280;20879;55.668;37.858;2023-10-09T11:18:10;98129.88;;;4.26;84.38
34674;BME280;20879;55.668;37.858;2023-10-09T11:20:54;98137.56;;;4.26;84.10
34674;BME280;20879;55.668;37.858;2023-10-09T11:23:54;98175.09;;;4.27;84.41
34674;BME280;20879;55.668;37.858;2023-10-09T11:26:26;98193.00;;;4.29;84.54
34674;BME280;20879;55.668;37.858;2023-10-09T11:29:10;98172.47;;;4.32;83.64
34674;BME280;20879;55.668;37.858;2023-10-09T11:32:04;98179.34;;;4.30;84.05
34674;BME280;20879;55.668;37.858;2023-10-09T11:34:45;98213.50;;;4.29;83.33
34674;BME280;20879;55.668;37.858;2023-10-09T11:37:25;98203.19;;;4.35;83.01
34674;BME280;20879;55.668;37.858;2023-10-09T11:40:26;98190.41;;;4.30;83.57
34674;BME280;20879;55.668;37.858;2023-10-09T11:43:29;98192.59;;;4.57;81.26
34674;BME280;20879;55.668;37.858;2023-10-09T11:46:33;98193.50;;;4.54;80.99
34674;BME280;20879;55.668;37.858;2023-10-09T11:49:26;98110.66;;;4.52;79.99
34674;BME280;20879;55.668;37.858;2023-10-09T11:52:13;98187.75;;;4.40;79.88
34674;BME280;20879;55.668;37.858;2023-10-09T11:55:17;98190.94;;;4.55;79.58
34674;BME280;20879;55.668;37.858;2023-10-09T11:58:20;98223.28;;;4.63;77.40
34674;BME280;20879;55.668;37.858;2023-10-09T12:01:12;98173.72;;;4.62;77.41
34674;BME280;20879;55.668;37.858;2023-10-09T12:04:03;98226.78;;;4.59;78.13
34674;BME280;20879;55.668;37.858;2023-10-09T12:06:48;98220.00;;;4.54;77.57
34674;BME280;20879;55.668;37.858;2023-10-09T12:09:41;98208.91;;;4.51;78.90
34674;BME280;20879;55.668;37.858;2023-10-09T12:12:21;98227.03;;;4.40;80.18
34674;BME280;20879;55.668;37.858;2023-10-09T12:14:58;98226.22;;;4.38;81.15
34674;BME280;20879;55.668;37.858;2023-10-09T12:17:39;98222.72;;;4.42;81.74
34674;BME280;20879;55.668;37.858;2023-10-09T12:20:38;98238.91;;;4.46;81.86
34674;BME280;20879;55.668;37.858;2023-10-09T12:23:30;98239.72;;;4.48;82.17
34674;BME280;20879;55.668;37.858;2023-10-09T12:26:25;98224.41;;;4.43;81.92
34674;BME280;20879;55.668;37.858;2023-10-09T12:29:16;98234.69;;;4.42;81.30
34674;BME280;20879;55.668;37.858;2023-10-09T12:31:51;98225.38;;;4.36;81.60
34674;BME280;20879;55.668;37.858;2023-10-09T12:34:41;98273.19;;;4.37;81.73
34674;BME280;20879;55.668;37.858;2023-10-09T12:37:19;98227.78;;;4.48;81.00
34674;BME280;20879;55.668;37.858;2023-10-09T12:40:10;98271.41;;;4.45;80.42
34674;BME280;20879;55.668;37.858;2023-10-09T12:48:44;98266.50;;;4.27;80.05
34674;BME280;20879;55.668;37.858;2023-10-09T12:51:17;98283.59;;;4.26;81.29
34674;BME280;20879;55.668;37.858;2023-10-09T12:53:48;98300.66;;;4.26;81.76
34674;BME280;20879;55.668;37.858;2023-10-09T12:56:29;98292.13;;;4.27;82.28
34674;BME280;20879;55.668;37.858;2023-10-09T12:59:05;98304.13;;;4.22;83.20
34674;BME280;20879;55.668;37.858;2023-10-09T13:01:43;98311.81;;;4.22;83.52
34674;BME280;20879;55.668;37.858;2023-10-09T13:04:19;98275.00;;;4.29;83.79
34674;BME280;20879;55.668;37.858;2023-10-09T13:06:50;98308.31;;;4.29;83.53
34674;BME280;20879;55.668;37.858;2023-10-09T13:09:29;98326.22;;;4.33;84.06
34674;BME280;20879;55.668;37.858;2023-10-09T13:12:02;98309.94;;;4.36;83.50
34674;BME280;20879;55.668;37.858;2023-10-09T13:14:34;98264.81;;;4.26;83.46
34674;BME280;20879;55.668;37.858;2023-10-09T13:17:04;98336.38;;;4.41;82.53
34674;BME280;20879;55.668;37.858;2023-10-09T13:19:44;98343.28;;;4.33;82.77
34674;BME280;20879;55.668;37.858;2023-10-09T13:22:26;98317.91;;;4.14;83.36
34674;BME280;20879;55.668;37.858;2023-10-09T13:25:01;98342.59;;;4.20;83.85
34674;BME280;20879;55.668;37.858;2023-10-09T13:27:34;98339.31;;;4.09;84.51
34674;BME280;20879;55.668;37.858;2023-10-09T13:30:17;98344.47;;;4.07;85.63
34674;BME280;20879;55.668;37.858;2023-10-09T13:33:17;98338.41;;;4.11;84.69
34674;BME280;20879;55.668;37.858;2023-10-09T13:35:52;98348.72;;;4.05;84.69
34674;BME280;20879;55.668;37.858;2023-10-09T13:38:40;98336.09;;;3.91;85.30
34674;BME280;20879;55.668;37.858;2023-10-09T13:41:14;98313.88;;;3.90;85.82
34674;BME280;20879;55.668;37.858;2023-10-09T13:43:46;98339.50;;;3.90;86.17
34674;BME280;20879;55.668;37.858;2023-10-09T13:46:24;98366.88;;;3.83;87.00
34674;BME280;20879;55.668;37.858;2023-10-09T13:49:01;98377.34;;;3.59;88.65
34674;BME280;20879;55.668;37.858;2023-10-09T13:54:52;98390.38;;;3.26;91.26
34674;BME280;20879;55.668;37.858;2023-10-09T13:57:32;98380.19;;;3.22;91.94
34674;BME280;20879;55.668;37.858;2023-10-09T14:00:02;98393.84;;;3.18;92.51
34674;BME280;20879;55.668;37.858;2023-10-09T14:02:42;98416.88;;;3.16;93.32
34674;BME280;20879;55.668;37.858;2023-10-09T14:05:23;98418.66;;;3.05;94.09
34674;BME280;20879;55.668;37.858;2023-10-09T14:07:59;98413.56;;;3.03;95.09
34674;BME280;20879;55.668;37.858;2023-10-09T14:10:51;98407.59;;;3.03;94.73
34674;BME280;20879;55.668;37.858;2023-10-09T14:13:26;98391.50;;;2.82;94.71
34674;BME280;20879;55.668;37.858;2023-10-09T14:16:02;98395.75;;;2.85;95.45
34674;BME280;20879;55.668;37.858;2023-10-09T14:18:46;98405.94;;;2.92;95.27
34674;BME280;20879;55.668;37.858;2023-10-09T14:21:25;98386.34;;;2.91;95.47
34674;BME280;20879;55.668;37.858;2023-10-09T14:24:13;98408.53;;;2.86;95.83
34674;BME280;20879;55.668;37.858;2023-10-09T14:26:49;98420.50;;;2.83;95.72
34674;BME280;20879;55.668;37.858;2023-10-09T14:29:34;98424.72;;;2.84;95.73
34674;BME280;20879;55.668;37.858;2023-10-09T14:32:23;98427.28;;;2.82;96.47
34674;BME280;20879;55.668;37.858;2023-10-09T14:35:09;98434.16;;;2.77;96.48
34674;BME280;20879;55.668;37.858;2023-10-09T14:38:03;98418.78;;;2.85;96.94